Charlottesville, Virginia
Current Conditions -  °F | °C
As of 1:53 PM on Friday 21 Nov 2014 (Local Time) from KCHO Reporting Station
Clear Clear  
Wind Chill: 34°   Ceiling: Unl
Heat Index: 38°   Visibility: 10mi
Dew Point:   Wind: 5mph
Humidity: 24%   Direction: NA
Pressure: 30.43"   Gusts: NA
Location:  38.03°N, 78.48°W
Report Text: KCHO 211853Z VRB04KT 10SM CLR 03/M16 A3043 RMK AO2 SLP307 T00331156
Loading
Personal Weather Stations






























Interactive Weather Map New forecast layout! Learn more

10-Day Weather Forecast

Advertisements
Track Severe Weather on mobile